createdAt,value
2019-02-17T00:01:31.094Z,78.09
2019-02-17T00:04:21.004Z,78.68
2019-02-17T00:07:11.642Z,79.28
2019-02-17T00:10:02.022Z,78.40
2019-02-17T00:12:52.380Z,79.20
2019-02-17T00:15:42.736Z,79.07
2019-02-17T00:18:33.670Z,77.92
2019-02-17T00:21:24.108Z,78.49
2019-02-17T00:24:15.578Z,78.27
2019-02-17T00:27:05.660Z,77.93
2019-02-17T00:29:56.254Z,78.92
2019-02-17T00:32:46.504Z,77.89
2019-02-17T00:35:37.079Z,77.70
2019-02-17T00:38:27.363Z,77.98
2019-02-17T00:41:18.786Z,78.10
2019-02-17T00:44:09.077Z,78.39
2019-02-17T00:46:59.472Z,78.82
2019-02-17T00:49:49.602Z,77.91
2019-02-17T00:52:40.041Z,77.55
2019-02-17T00:55:30.509Z,77.84
2019-02-17T00:58:39.272Z,78.11
2019-02-17T01:01:29.531Z,78.69
2019-02-17T01:04:20.036Z,79.68
2019-02-17T01:07:10.434Z,80.07
2019-02-17T01:10:03.467Z,80.44
2019-02-17T01:12:53.507Z,79.94
2019-02-17T01:15:43.817Z,80.78
2019-02-17T01:18:34.196Z,80.46
2019-02-17T01:21:24.484Z,79.63
2019-02-17T01:24:17.434Z,78.29
2019-02-17T01:27:07.657Z,77.50
2019-02-17T01:29:59.257Z,78.21
2019-02-17T01:32:49.418Z,78.07
2019-02-17T01:35:39.714Z,77.59
2019-02-17T01:38:30.101Z,78.34
2019-02-17T01:41:20.353Z,79.36
2019-02-17T01:44:11.079Z,79.57
2019-02-17T01:47:01.467Z,78.83
2019-02-17T01:49:51.885Z,79.09
2019-02-17T01:52:42.218Z,79.37
2019-02-17T01:55:32.646Z,78.66
2019-02-17T01:58:22.869Z,78.69
2019-02-17T02:01:13.112Z,77.94
2019-02-17T02:04:03.736Z,78.76
2019-02-17T02:06:53.854Z,78.94
2019-02-17T02:09:44.186Z,78.22
2019-02-17T02:12:34.674Z,78.85
2019-02-17T02:15:25.068Z,78.98
2019-02-17T02:18:15.460Z,79.72
2019-02-17T02:21:05.609Z,80.44
2019-02-17T02:23:55.987Z,80.59
2019-02-17T02:26:45.955Z,80.27
2019-02-17T02:29:41.001Z,80.61
2019-02-17T02:32:28.221Z,81.05
2019-02-17T02:35:18.528Z,82.49
2019-02-17T02:38:13.496Z,82.91
2019-02-17T02:41:03.334Z,82.64
2019-02-17T02:43:53.591Z,82.60
2019-02-17T02:46:43.944Z,81.94
2019-02-17T02:49:34.080Z,82.73
2019-02-17T02:52:24.717Z,83.23
2019-02-17T02:55:14.885Z,82.62
2019-02-17T02:58:06.259Z,83.45
2019-02-17T03:00:56.505Z,84.14
2019-02-17T03:03:49.133Z,84.70
2019-02-17T03:06:44.291Z,84.98
2019-02-17T03:09:34.744Z,85.07
2019-02-17T03:12:24.964Z,84.69
2019-02-17T03:15:16.966Z,85.12
2019-02-17T03:18:07.120Z,85.62
2019-02-17T03:20:57.220Z,85.48
2019-02-17T03:23:47.459Z,87.25
2019-02-17T03:26:38.813Z,86.97
2019-02-17T03:29:29.172Z,86.59
2019-02-17T03:32:19.292Z,86.00
2019-02-17T03:35:09.521Z,86.99
2019-02-17T03:37:59.875Z,87.22
2019-02-17T03:40:50.285Z,87.87
2019-02-17T03:43:40.782Z,87.02
2019-02-17T03:46:31.098Z,87.56
2019-02-17T03:49:21.314Z,86.62
2019-02-17T03:52:11.411Z,86.69
2019-02-17T03:55:01.727Z,87.24
2019-02-17T03:57:53.067Z,87.04
2019-02-17T04:00:43.613Z,87.33
2019-02-17T04:03:34.813Z,87.60
2019-02-17T04:06:24.885Z,86.69
2019-02-17T04:09:15.286Z,86.14
2019-02-17T04:12:05.767Z,86.33
2019-02-17T04:14:56.059Z,85.50
2019-02-17T04:17:46.390Z,84.85
2019-02-17T04:20:36.693Z,85.16
2019-02-17T04:23:31.243Z,84.07
2019-02-17T04:26:18.655Z,84.64
2019-02-17T04:29:10.279Z,84.86
2019-02-17T04:32:00.384Z,85.53
2019-02-17T04:34:50.840Z,85.28
2019-02-17T04:37:40.853Z,85.00
2019-02-17T04:40:31.204Z,84.65
2019-02-17T04:43:21.604Z,84.55
2019-02-17T04:46:12.144Z,84.88
2019-02-17T04:49:02.546Z,84.20
2019-02-17T04:51:52.888Z,84.56
2019-02-17T04:54:43.134Z,86.00
2019-02-17T04:57:33.364Z,86.88
2019-02-17T05:00:23.663Z,87.05
2019-02-17T05:03:14.563Z,87.19
2019-02-17T05:06:04.763Z,87.52
2019-02-17T05:08:54.939Z,87.34
2019-02-17T05:11:45.199Z,87.53
2019-02-17T05:14:35.721Z,87.36
2019-02-17T05:17:26.060Z,86.92
2019-02-17T05:20:16.350Z,86.95
2019-02-17T05:23:06.606Z,88.49
2019-02-17T05:25:57.016Z,88.48
2019-02-17T05:28:47.193Z,88.81
2019-02-17T05:31:37.464Z,88.84
2019-02-17T05:34:27.762Z,89.10
2019-02-17T05:37:17.940Z,89.33
2019-02-17T05:40:08.363Z,89.00
2019-02-17T05:42:58.939Z,88.27
2019-02-17T05:45:49.181Z,87.29
2019-02-17T05:48:42.296Z,86.24
2019-02-17T05:51:32.763Z,84.81
2019-02-17T05:54:23.216Z,82.85
2019-02-17T05:57:13.248Z,81.05
2019-02-17T06:00:03.689Z,79.80
2019-02-17T06:02:54.064Z,79.29
2019-02-17T06:05:44.554Z,77.83
2019-02-17T06:08:34.802Z,75.73
2019-02-17T06:11:24.875Z,73.38
2019-02-17T06:14:15.169Z,72.25
2019-02-17T06:17:05.692Z,68.99
2019-02-17T06:19:56.147Z,68.27
2019-02-17T06:22:46.430Z,68.78
2019-02-17T06:25:36.444Z,68.49
2019-02-17T06:28:26.755Z,67.85
2019-02-17T06:31:16.993Z,64.60
2019-02-17T06:34:07.780Z,58.86
2019-02-17T06:36:57.844Z,56.50
2019-02-17T06:39:48.218Z,50.37
2019-02-17T06:42:38.308Z,46.42
2019-02-17T06:45:28.837Z,42.67
2019-02-17T06:48:19.002Z,40.70
2019-02-17T06:51:09.324Z,40.97
2019-02-17T06:53:59.579Z,41.80
2019-02-17T06:56:56.476Z,42.68
2019-02-17T06:59:46.702Z,41.30
2019-02-17T07:02:37.170Z,37.78
2019-02-17T07:05:36.054Z,37.34
2019-02-17T07:08:26.440Z,36.32
2019-02-17T07:11:16.706Z,35.79
2019-02-17T07:14:07.310Z,36.98
2019-02-17T07:16:57.595Z,37.17
2019-02-17T07:19:47.940Z,36.58
2019-02-17T07:22:38.074Z,39.15
2019-02-17T07:25:30.362Z,40.68
2019-02-17T07:28:20.429Z,39.52
2019-02-17T07:31:10.782Z,41.92
2019-02-17T07:34:01.136Z,39.15
2019-02-17T07:36:51.202Z,40.15
2019-02-17T07:39:41.517Z,39.96
2019-02-17T07:42:31.838Z,39.57
2019-02-17T07:45:22.126Z,39.54
2019-02-17T07:48:12.411Z,35.88
2019-02-17T07:51:02.834Z,36.46
2019-02-17T07:53:53.113Z,36.88
2019-02-17T07:56:43.416Z,34.91
2019-02-17T07:59:33.626Z,34.24
2019-02-17T08:02:23.930Z,34.03
2019-02-17T08:05:14.606Z,32.30
2019-02-17T08:08:04.983Z,30.88
2019-02-17T08:11:03.656Z,30.45
2019-02-17T08:13:47.216Z,29.20
2019-02-17T08:16:37.429Z,31.91
2019-02-17T08:19:27.498Z,30.56
2019-02-17T08:22:17.798Z,30.62
2019-02-17T08:25:09.438Z,28.77
2019-02-17T08:28:00.290Z,27.01
2019-02-17T08:30:51.121Z,26.57
2019-02-17T08:33:42.089Z,26.03
2019-02-17T08:36:32.869Z,25.15
2019-02-17T08:39:24.289Z,26.86
2019-02-17T08:42:14.640Z,29.23
2019-02-17T08:45:05.029Z,29.21
2019-02-17T08:47:55.271Z,31.27
2019-02-17T08:50:45.499Z,33.24
2019-02-17T08:53:35.898Z,33.97
2019-02-17T08:56:26.398Z,35.33
2019-02-17T08:59:16.694Z,34.56
2019-02-17T09:02:06.849Z,37.93
2019-02-17T09:04:57.220Z,39.78
2019-02-17T09:07:47.265Z,39.65
2019-02-17T09:10:37.747Z,39.53
2019-02-17T09:13:28.117Z,40.77
2019-02-17T09:16:18.498Z,41.72
2019-02-17T09:19:08.967Z,42.78
2019-02-17T09:21:59.238Z,43.55
2019-02-17T09:24:49.545Z,42.98
2019-02-17T09:27:39.990Z,42.76
2019-02-17T09:30:30.308Z,41.81
2019-02-17T09:33:20.639Z,42.12
2019-02-17T09:36:11.035Z,41.79
2019-02-17T09:39:01.239Z,40.74
2019-02-17T09:41:53.481Z,42.45
2019-02-17T09:44:43.818Z,42.48
2019-02-17T09:47:34.163Z,43.32
2019-02-17T09:50:24.585Z,44.28
2019-02-17T09:53:15.116Z,46.42
2019-02-17T09:56:05.567Z,45.76
2019-02-17T09:58:55.827Z,47.86
2019-02-17T10:01:46.069Z,47.75
2019-02-17T10:04:36.569Z,48.92
2019-02-17T10:07:26.879Z,47.83
2019-02-17T10:10:17.281Z,48.04
2019-02-17T10:13:07.563Z,49.84
2019-02-17T10:15:57.915Z,51.53
2019-02-17T10:18:48.196Z,46.26
2019-02-17T10:21:38.640Z,48.27
2019-02-17T10:24:29.038Z,45.64
2019-02-17T10:27:19.440Z,46.33
2019-02-17T10:30:11.288Z,47.33
2019-02-17T10:33:01.711Z,47.24
2019-02-17T10:35:52.027Z,48.18
2019-02-17T10:38:42.398Z,51.67
2019-02-17T10:41:32.349Z,47.82
2019-02-17T10:44:22.695Z,48.77
2019-02-17T10:47:12.950Z,52.03
2019-02-17T10:50:03.286Z,51.62
2019-02-17T10:52:53.526Z,52.08
2019-02-17T10:55:43.741Z,54.52
2019-02-17T10:58:34.550Z,50.91
2019-02-17T11:01:24.715Z,52.79
2019-02-17T11:04:14.962Z,48.54
2019-02-17T11:07:05.429Z,47.08
2019-02-17T11:09:55.736Z,50.98
2019-02-17T11:12:46.102Z,53.58
2019-02-17T11:15:36.609Z,54.10
2019-02-17T11:18:26.831Z,50.12
2019-02-17T11:21:16.837Z,52.94
2019-02-17T11:24:07.616Z,50.88
2019-02-17T11:26:57.825Z,48.59
2019-02-17T11:29:48.351Z,48.97
2019-02-17T11:32:38.614Z,48.31
2019-02-17T11:35:29.964Z,44.43
2019-02-17T11:38:20.388Z,47.11
2019-02-17T11:41:12.567Z,45.14
2019-02-17T11:44:02.537Z,45.17
2019-02-17T11:46:53.270Z,45.87
2019-02-17T11:49:43.540Z,46.14
2019-02-17T11:52:33.984Z,44.54
2019-02-17T11:55:24.294Z,44.14
2019-02-17T11:58:14.815Z,44.66
2019-02-17T12:01:05.526Z,43.95
2019-02-17T12:03:55.763Z,45.71
2019-02-17T12:06:46.045Z,46.10
2019-02-17T12:09:36.377Z,43.87
2019-02-17T12:12:26.783Z,47.64
2019-02-17T12:15:17.481Z,46.12
2019-02-17T12:18:07.916Z,46.19
2019-02-17T12:21:07.933Z,47.25
2019-02-17T12:24:15.807Z,47.38
2019-02-17T12:27:14.509Z,48.13
2019-02-17T12:30:08.201Z,47.09
2019-02-17T12:32:58.469Z,48.41
2019-02-17T12:35:49.894Z,48.41
2019-02-17T12:38:40.145Z,49.36
2019-02-17T12:41:30.342Z,50.17
2019-02-17T12:44:20.933Z,48.63
2019-02-17T12:47:11.324Z,48.52
2019-02-17T12:50:01.934Z,47.79
2019-02-17T12:52:53.210Z,48.30
2019-02-17T12:55:48.179Z,48.87
2019-02-17T12:58:41.778Z,50.66
2019-02-17T13:01:32.518Z,48.34
2019-02-17T13:04:22.817Z,49.51
2019-02-17T13:07:13.515Z,49.52
2019-02-17T13:10:03.934Z,50.93
2019-02-17T13:12:54.076Z,49.15
2019-02-17T13:15:44.157Z,50.81
2019-02-17T13:18:34.558Z,50.37
2019-02-17T13:21:24.814Z,50.28
2019-02-17T13:24:15.301Z,51.79
2019-02-17T13:27:05.582Z,51.75
2019-02-17T13:29:55.968Z,51.69
2019-02-17T13:32:48.970Z,53.53
2019-02-17T13:35:39.257Z,54.44
2019-02-17T13:38:29.679Z,54.47
2019-02-17T13:41:20.286Z,54.72
2019-02-17T13:44:10.734Z,54.47
2019-02-17T13:47:00.798Z,54.43
2019-02-17T13:49:51.019Z,56.16
2019-02-17T13:52:41.342Z,53.51
2019-02-17T13:55:31.694Z,55.96
2019-02-17T13:58:22.056Z,57.08
2019-02-17T14:01:12.322Z,56.30
2019-02-17T14:04:02.657Z,54.29
2019-02-17T14:06:52.927Z,54.22
2019-02-17T14:09:43.827Z,55.96
2019-02-17T14:12:34.055Z,55.29
2019-02-17T14:15:24.456Z,54.93
2019-02-17T14:18:14.432Z,53.52
2019-02-17T14:21:05.005Z,52.96
2019-02-17T14:23:55.458Z,54.19
2019-02-17T14:26:45.851Z,54.40
2019-02-17T14:29:36.102Z,55.73
2019-02-17T14:32:26.350Z,54.06
2019-02-17T14:35:16.638Z,55.66
2019-02-17T14:38:07.259Z,54.17
2019-02-17T14:40:59.654Z,57.67
2019-02-17T14:43:50.252Z,58.01
2019-02-17T14:46:40.647Z,57.17
2019-02-17T14:49:31.090Z,58.85
2019-02-17T14:52:21.427Z,57.91
2019-02-17T14:55:11.791Z,56.04
2019-02-17T14:58:05.525Z,56.35
2019-02-17T15:00:56.490Z,56.41
2019-02-17T15:03:46.439Z,55.24
2019-02-17T15:06:36.766Z,54.50
2019-02-17T15:09:27.093Z,53.56
2019-02-17T15:12:19.455Z,52.32
2019-02-17T15:15:09.976Z,52.75
2019-02-17T15:18:00.139Z,53.48
2019-02-17T15:20:50.479Z,53.26
2019-02-17T15:23:41.118Z,53.42
2019-02-17T15:26:31.626Z,53.67
2019-02-17T15:29:22.114Z,55.11
2019-02-17T15:32:12.284Z,55.36
2019-02-17T15:35:02.674Z,54.75
2019-02-17T15:37:52.682Z,54.99
2019-02-17T15:40:42.793Z,54.16
2019-02-17T15:43:32.886Z,55.17
2019-02-17T15:46:23.150Z,55.77
2019-02-17T15:49:13.453Z,54.72
2019-02-17T15:52:03.833Z,54.89
2019-02-17T15:54:54.197Z,55.06
2019-02-17T15:57:44.330Z,55.15
2019-02-17T16:00:34.485Z,55.49
2019-02-17T16:03:25.511Z,56.44
2019-02-17T16:06:15.465Z,57.42
2019-02-17T16:09:05.947Z,57.62
2019-02-17T16:11:55.932Z,57.52
2019-02-17T16:14:46.071Z,57.25
2019-02-17T16:17:36.410Z,56.46
2019-02-17T16:20:26.948Z,54.98
2019-02-17T16:23:17.432Z,54.09
2019-02-17T16:26:07.969Z,51.08
2019-02-17T16:29:00.801Z,50.36
2019-02-17T16:31:51.263Z,49.06
2019-02-17T16:34:41.560Z,48.91
2019-02-17T16:37:31.711Z,48.76
2019-02-17T16:40:21.949Z,47.63
2019-02-17T16:43:11.929Z,48.78
2019-02-17T16:46:02.062Z,48.79
2019-02-17T16:48:52.345Z,48.46
2019-02-17T16:51:42.487Z,48.15
2019-02-17T16:54:33.141Z,47.38
2019-02-17T16:57:23.481Z,47.42
2019-02-17T17:00:16.265Z,47.16
2019-02-17T17:03:06.313Z,46.63
2019-02-17T17:05:56.694Z,46.11
2019-02-17T17:08:47.655Z,46.08
2019-02-17T17:11:37.994Z,46.04
2019-02-17T17:14:28.202Z,46.29
2019-02-17T17:17:18.308Z,46.34
2019-02-17T17:20:09.185Z,46.13
2019-02-17T17:22:59.632Z,46.07
2019-02-17T17:25:50.280Z,46.53
2019-02-17T17:28:40.590Z,46.29
2019-02-17T17:31:30.925Z,46.10
2019-02-17T17:34:21.043Z,45.91
2019-02-17T17:37:11.306Z,45.58
2019-02-17T17:40:01.751Z,45.42
2019-02-17T17:42:53.115Z,45.25
2019-02-17T17:45:43.368Z,45.55
2019-02-17T17:48:33.457Z,45.26
2019-02-17T17:51:23.871Z,45.31
2019-02-17T17:54:14.109Z,44.73
2019-02-17T17:57:06.956Z,44.25
2019-02-17T17:59:56.988Z,44.34
2019-02-17T18:02:47.459Z,45.22
2019-02-17T18:05:40.611Z,45.43
2019-02-17T18:08:30.791Z,45.49
2019-02-17T18:11:20.992Z,46.10
2019-02-17T18:14:11.671Z,48.15
2019-02-17T18:17:01.942Z,48.46
2019-02-17T18:19:52.176Z,48.39
2019-02-17T18:22:42.456Z,48.37
2019-02-17T18:25:32.829Z,48.13
2019-02-17T18:28:23.154Z,48.06
2019-02-17T18:31:14.182Z,47.67
2019-02-17T18:34:04.400Z,47.07
2019-02-17T18:36:54.641Z,47.75
2019-02-17T18:39:49.262Z,48.52
2019-02-17T18:42:41.005Z,48.58
2019-02-17T18:45:31.324Z,49.61
2019-02-17T18:48:21.799Z,50.68
2019-02-17T18:51:12.228Z,51.02
2019-02-17T18:54:02.419Z,50.45
2019-02-17T18:56:52.623Z,50.32
2019-02-17T18:59:45.872Z,50.41
2019-02-17T19:02:35.871Z,50.39
2019-02-17T19:05:32.146Z,50.04
2019-02-17T19:08:17.756Z,49.52
2019-02-17T19:11:08.416Z,49.83
2019-02-17T19:13:58.430Z,49.48
2019-02-17T19:16:49.466Z,48.74
2019-02-17T19:19:39.726Z,48.30
2019-02-17T19:22:30.153Z,48.32
2019-02-17T19:25:22.630Z,48.49
2019-02-17T19:28:12.996Z,49.41
2019-02-17T19:31:03.206Z,48.73
2019-02-17T19:33:53.750Z,48.60
2019-02-17T19:36:43.698Z,48.65
2019-02-17T19:39:35.440Z,48.96
2019-02-17T19:42:25.435Z,49.32
2019-02-17T19:45:15.845Z,48.94
2019-02-17T19:48:08.712Z,48.33
2019-02-17T19:50:59.214Z,48.14
2019-02-17T19:53:49.269Z,48.03
2019-02-17T19:56:39.963Z,48.22
2019-02-17T19:59:29.871Z,48.14
2019-02-17T20:02:24.773Z,47.88
2019-02-17T20:05:17.619Z,47.88
2019-02-17T20:08:08.938Z,47.71
2019-02-17T20:10:59.272Z,47.98
2019-02-17T20:13:49.664Z,47.96
2019-02-17T20:16:39.687Z,47.28
2019-02-17T20:19:32.665Z,47.81
2019-02-17T20:22:22.808Z,47.50
2019-02-17T20:25:13.391Z,47.33
2019-02-17T20:28:03.868Z,47.58
2019-02-17T20:30:54.064Z,46.81
2019-02-17T20:33:44.296Z,45.86
2019-02-17T20:36:34.844Z,45.53
2019-02-17T20:39:25.003Z,45.25
2019-02-17T20:42:15.400Z,45.04
2019-02-17T20:45:05.920Z,45.73
2019-02-17T20:47:56.354Z,45.20
2019-02-17T20:50:46.683Z,44.49
2019-02-17T20:53:37.069Z,44.19
2019-02-17T20:56:27.590Z,44.15
2019-02-17T20:59:18.254Z,45.40
2019-02-17T21:02:08.681Z,45.75
2019-02-17T21:04:59.751Z,46.30
2019-02-17T21:07:50.009Z,45.00
2019-02-17T21:10:40.292Z,44.67
2019-02-17T21:13:30.508Z,43.82
2019-02-17T21:16:20.512Z,43.32
2019-02-17T21:19:10.583Z,43.65
2019-02-17T21:22:01.087Z,43.49
2019-02-17T21:24:51.658Z,42.34
2019-02-17T21:27:42.081Z,40.04
2019-02-17T21:30:32.092Z,39.45
2019-02-17T21:33:22.200Z,39.60
2019-02-17T21:36:22.783Z,40.24
2019-02-17T21:39:07.219Z,40.77
2019-02-17T21:41:58.502Z,41.36
2019-02-17T21:44:48.581Z,42.21
2019-02-17T21:47:39.271Z,42.88
2019-02-17T21:50:29.698Z,43.75
2019-02-17T21:53:21.031Z,44.34
2019-02-17T21:56:11.246Z,45.06
2019-02-17T21:59:01.221Z,45.39
2019-02-17T22:01:51.406Z,44.71
2019-02-17T22:04:41.989Z,44.98
2019-02-17T22:07:32.233Z,44.93
2019-02-17T22:10:22.465Z,45.06
2019-02-17T22:13:12.797Z,45.34
2019-02-17T22:16:03.126Z,45.82
2019-02-17T22:18:53.492Z,45.61
2019-02-17T22:21:43.620Z,44.70
2019-02-17T22:24:33.889Z,43.47
2019-02-17T22:27:24.110Z,43.84
2019-02-17T22:30:14.024Z,44.94
2019-02-17T22:33:04.490Z,46.10
2019-02-17T22:35:55.347Z,47.43
2019-02-17T22:38:45.772Z,48.99
2019-02-17T22:41:35.965Z,48.69
2019-02-17T22:44:27.194Z,50.39
2019-02-17T22:47:17.823Z,53.64
2019-02-17T22:50:08.773Z,53.54
2019-02-17T22:52:58.818Z,54.41
2019-02-17T22:55:49.109Z,58.97
2019-02-17T22:58:39.724Z,62.58
2019-02-17T23:01:32.496Z,63.48
2019-02-17T23:04:23.207Z,64.21
2019-02-17T23:07:13.266Z,65.08
2019-02-17T23:10:05.212Z,65.72
2019-02-17T23:12:55.474Z,65.93
2019-02-17T23:15:45.589Z,66.09
2019-02-17T23:18:37.809Z,66.53
2019-02-17T23:21:28.494Z,66.49
2019-02-17T23:24:18.600Z,66.81
2019-02-17T23:27:08.818Z,66.78
2019-02-17T23:29:59.109Z,66.03
2019-02-17T23:32:49.541Z,66.05
2019-02-17T23:35:39.582Z,65.90
2019-02-17T23:38:29.783Z,65.87
2019-02-17T23:41:20.082Z,66.35
2019-02-17T23:44:10.566Z,66.89
2019-02-17T23:47:00.810Z,67.34
2019-02-17T23:49:54.497Z,67.24
2019-02-17T23:52:44.884Z,67.00
2019-02-17T23:55:35.274Z,67.19
2019-02-17T23:58:25.623Z,67.68
